Time;durP1;ratioP1;P1;durP2;ratioP2;P2;SDS_P1;SDS_P2;PMS_P1;PMS_P2;Temp;Humidity;BMP_temperature;BMP_pressure;BME280_temperature;BME280_humidity;BME280_pressure;Samples;Min_cycle;Max_cycle;Signal;HPM_P1;HPM_P2
2024/04/04 05:02:23;;;;;;;2.37;1.47;;;;;;;;;;5149160;22;20642;-80
2024/04/04 05:04:49;;;;;;;1.60;1.40;;;;;;;;;;5053286;28;20417;-81
2024/04/04 05:07:15;;;;;;;6.20;1.43;;;;;;;;;;5043603;28;20652;-80
2024/04/04 05:09:41;;;;;;;4.53;1.60;;;;;;;;;;5037239;28;20433;-80
2024/04/04 05:12:07;;;;;;;1.53;1.13;;;;;;;;;;5042517;28;20428;-79
2024/04/04 05:14:32;;;;;;;4.67;1.63;;;;;;;;;;5042562;28;20475;-79
2024/04/04 05:16:58;;;;;;;5.40;1.57;;;;;;;;;;5087436;22;20494;-72
2024/04/04 05:19:24;;;;;;;6.20;1.90;;;;;;;;;;5073688;28;20474;-81
2024/04/04 05:21:51;;;;;;;3.70;1.63;;;;;;;;;;5075313;28;20898;-76
2024/04/04 05:24:17;;;;;;;3.43;1.70;;;;;;;;;;5076089;28;20392;-78
2024/04/04 05:26:43;;;;;;;2.70;1.53;;;;;;;;;;5072934;28;20430;-77
2024/04/04 05:29:12;;;;;;;2.73;1.43;;;;;;;;;;5073766;28;20436;-76
2024/04/04 05:31:42;;;;;;;3.20;1.50;;;;;;;;;;5074416;28;20427;-72
2024/04/04 05:34:08;;;;;;;2.60;1.53;;;;;;;;;;5072980;28;20768;-74
2024/04/04 05:36:33;;;;;;;2.63;1.30;;;;;;;;;;5082529;28;20463;-74
2024/04/04 05:38:59;;;;;;;3.47;1.40;;;;;;;;;;5084584;28;20442;-75
2024/04/04 05:41:25;;;;;;;4.67;1.67;;;;;;;;;;5080829;28;20439;-74
2024/04/04 05:43:51;;;;;;;3.27;1.53;;;;;;;;;;5072876;28;20411;-71
2024/04/04 05:46:17;;;;;;;7.10;2.17;;;;;;;;;;5072692;28;20456;-71
2024/04/04 05:48:43;;;;;;;3.83;1.40;;;;;;;;;;5073100;28;20416;-75
2024/04/04 05:51:09;;;;;;;4.83;1.37;;;;;;;;;;5072948;28;20411;-75
2024/04/04 05:53:35;;;;;;;5.93;1.27;;;;;;;;;;5072647;28;20410;-72
2024/04/04 05:56:01;;;;;;;3.73;1.40;;;;;;;;;;5072271;28;20828;-71
2024/04/04 05:58:27;;;;;;;8.37;1.67;;;;;;;;;;5073452;28;20399;-73
2024/04/04 06:00:53;;;;;;;3.90;1.80;;;;;;;;;;5074514;28;20439;-73
2024/04/04 06:03:19;;;;;;;12.00;1.80;;;;;;;;;;5073982;28;20403;-73
2024/04/04 06:05:45;;;;;;;3.53;1.53;;;;;;;;;;5072727;28;20482;-74
2024/04/04 06:08:12;;;;;;;9.80;1.50;;;;;;;;;;5074134;28;20460;-74
2024/04/04 06:10:38;;;;;;;3.33;1.67;;;;;;;;;;5073834;28;20447;-74
2024/04/04 06:13:04;;;;;;;6.00;1.73;;;;;;;;;;5072412;28;20921;-73
2024/04/04 06:15:30;;;;;;;6.37;1.70;;;;;;;;;;5072588;28;20469;-74
2024/04/04 06:17:56;;;;;;;2.30;1.40;;;;;;;;;;5073219;28;20399;-75
2024/04/04 06:20:23;;;;;;;1.97;1.43;;;;;;;;;;5073403;28;20492;-74
2024/04/04 06:22:49;;;;;;;16.43;2.10;;;;;;;;;;5073175;28;20519;-76
2024/04/04 06:25:15;;;;;;;3.83;1.97;;;;;;;;;;5074594;28;20488;-76
2024/04/04 06:27:41;;;;;;;7.93;2.70;;;;;;;;;;5077542;28;20779;-75
2024/04/04 06:30:08;;;;;;;10.50;2.30;;;;;;;;;;5076811;28;20412;-77
2024/04/04 06:32:35;;;;;;;4.53;1.83;;;;;;;;;;5074070;28;20430;-76
2024/04/04 06:35:01;;;;;;;6.97;2.43;;;;;;;;;;5072780;28;20948;-76
2024/04/04 06:37:28;;;;;;;4.17;2.07;;;;;;;;;;5072820;28;20434;-75
2024/04/04 06:39:54;;;;;;;5.67;1.90;;;;;;;;;;5074479;28;20408;-74
2024/04/04 06:42:20;;;;;;;8.07;1.83;;;;;;;;;;5072757;28;20968;-75
2024/04/04 06:44:46;;;;;;;6.93;2.13;;;;;;;;;;5051253;28;20424;-74
2024/04/04 06:47:12;;;;;;;10.83;1.90;;;;;;;;;;5052320;28;20482;-75
2024/04/04 06:49:38;;;;;;;5.43;2.33;;;;;;;;;;5056760;28;20415;-74
2024/04/04 06:52:04;;;;;;;5.57;2.23;;;;;;;;;;5090334;28;20422;-76
2024/04/04 06:54:30;;;;;;;3.10;1.90;;;;;;;;;;5089108;28;20418;-73
2024/04/04 06:56:57;;;;;;;6.23;2.30;;;;;;;;;;5093649;28;20422;-73
2024/04/04 06:59:23;;;;;;;6.87;2.00;;;;;;;;;;5089319;28;20464;-75
2024/04/04 07:01:49;;;;;;;5.67;2.00;;;;;;;;;;5081342;28;20919;-73
2024/04/04 07:04:15;;;;;;;5.87;2.10;;;;;;;;;;5100927;28;20414;-73
2024/04/04 07:06:41;;;;;;;6.03;2.13;;;;;;;;;;5098511;28;20568;-73
2024/04/04 07:09:07;;;;;;;9.93;2.07;;;;;;;;;;5097302;28;20892;-73
2024/04/04 07:11:33;;;;;;;12.40;2.30;;;;;;;;;;5090802;28;20876;-73
2024/04/04 07:13:58;;;;;;;7.53;2.30;;;;;;;;;;5078327;28;20411;-74
2024/04/04 07:16:25;;;;;;;7.77;2.73;;;;;;;;;;5076309;28;20474;-74
2024/04/04 07:18:51;;;;;;;5.60;1.60;;;;;;;;;;5077028;28;20415;-74
2024/04/04 07:21:17;;;;;;;9.23;2.20;;;;;;;;;;5076491;28;20965;-73
2024/04/04 07:23:43;;;;;;;6.80;2.07;;;;;;;;;;5076380;28;20880;-74
2024/04/04 07:26:09;;;;;;;9.90;2.60;;;;;;;;;;5076161;28;20808;-74
2024/04/04 07:28:35;;;;;;;6.37;2.57;;;;;;;;;;5087410;28;20449;-73
2024/04/04 07:31:01;;;;;;;11.23;3.07;;;;;;;;;;5084705;28;20415;-75
2024/04/04 07:33:27;;;;;;;9.80;2.80;;;;;;;;;;5077985;28;20411;-73
2024/04/04 07:35:53;;;;;;;7.30;2.20;;;;;;;;;;5080298;28;20980;-74
2024/04/04 07:38:19;;;;;;;9.23;1.80;;;;;;;;;;5094741;28;20496;-74
2024/04/04 07:40:46;;;;;;;4.50;2.10;;;;;;;;;;5089767;28;20408;-72
2024/04/04 07:43:12;;;;;;;5.00;2.27;;;;;;;;;;5080663;28;20481;-74
2024/04/04 07:45:39;;;;;;;8.37;2.27;;;;;;;;;;5082503;28;20440;-73
2024/04/04 07:48:08;;;;;;;6.90;2.10;;;;;;;;;;5087396;28;20454;-73
2024/04/04 07:50:34;;;;;;;11.10;2.63;;;;;;;;;;5075701;28;20426;-75
2024/04/04 07:53:00;;;;;;;7.77;2.70;;;;;;;;;;5078604;28;20465;-73
2024/04/04 07:55:26;;;;;;;12.30;2.60;;;;;;;;;;5092605;28;20557;-73
2024/04/04 07:57:52;;;;;;;5.17;1.97;;;;;;;;;;5105915;28;20407;-75
2024/04/04 08:00:18;;;;;;;8.43;2.37;;;;;;;;;;5101523;28;20415;-74
2024/04/04 08:02:45;;;;;;;9.60;2.07;;;;;;;;;;5108322;28;20429;-74
2024/04/04 08:05:11;;;;;;;12.60;2.87;;;;;;;;;;5102635;28;20410;-73
2024/04/04 08:07:37;;;;;;;10.03;2.93;;;;;;;;;;5098774;28;20403;-73
2024/04/04 08:10:05;;;;;;;5.97;2.07;;;;;;;;;;5087607;28;20411;-74
2024/04/04 08:12:31;;;;;;;10.43;2.07;;;;;;;;;;5077603;28;20415;-74
2024/04/04 08:14:57;;;;;;;9.10;2.33;;;;;;;;;;5077930;28;20799;-74
2024/04/04 08:17:23;;;;;;;9.17;2.80;;;;;;;;;;5076713;28;20442;-73
2024/04/04 08:19:50;;;;;;;8.93;2.37;;;;;;;;;;5088065;28;20755;-72
2024/04/04 08:22:15;;;;;;;8.07;2.50;;;;;;;;;;5078348;28;20417;-76
2024/04/04 08:24:41;;;;;;;12.80;2.23;;;;;;;;;;5075778;28;20867;-76
2024/04/04 08:27:07;;;;;;;7.00;2.00;;;;;;;;;;5076361;28;20435;-73
2024/04/04 08:29:33;;;;;;;8.83;2.27;;;;;;;;;;5076417;28;20441;-75
2024/04/04 08:31:59;;;;;;;9.80;2.43;;;;;;;;;;5076421;28;20898;-73
2024/04/04 08:34:25;;;;;;;15.67;2.63;;;;;;;;;;5075428;28;20418;-73
2024/04/04 08:36:51;;;;;;;4.13;1.80;;;;;;;;;;5075744;28;20470;-76
2024/04/04 08:39:17;;;;;;;8.03;2.10;;;;;;;;;;5094071;28;20898;-76
2024/04/04 08:41:44;;;;;;;9.37;2.70;;;;;;;;;;5087591;28;20445;-74
2024/04/04 08:44:12;;;;;;;6.53;2.43;;;;;;;;;;5075683;28;20841;-73
2024/04/04 08:46:38;;;;;;;8.47;2.10;;;;;;;;;;5075378;28;20431;-74
2024/04/04 08:49:04;;;;;;;7.37;1.77;;;;;;;;;;5095677;28;20453;-73
2024/04/04 08:51:30;;;;;;;6.83;2.70;;;;;;;;;;5075215;28;20469;-74
2024/04/04 08:53:56;;;;;;;4.33;1.70;;;;;;;;;;5075416;28;20899;-76
2024/04/04 08:56:23;;;;;;;6.20;2.53;;;;;;;;;;5076728;28;20470;-73
2024/04/04 08:58:48;;;;;;;3.93;2.07;;;;;;;;;;5073267;28;20581;-72
2024/04/04 09:01:14;;;;;;;9.93;2.60;;;;;;;;;;5093466;28;20896;-73
2024/04/04 09:03:44;;;;;;;5.10;2.47;;;;;;;;;;5095108;28;20781;-75
2024/04/04 09:06:09;;;;;;;6.20;1.80;;;;;;;;;;5095068;28;20494;-75
2024/04/04 09:08:39;;;;;;;8.63;2.40;;;;;;;;;;5095507;28;20822;-75
2024/04/04 09:11:05;;;;;;;7.43;2.37;;;;;;;;;;5078455;28;20416;-75
2024/04/04 09:13:31;;;;;;;6.77;2.00;;;;;;;;;;5074361;28;20418;-74
2024/04/04 09:16:00;;;;;;;10.07;2.40;;;;;;;;;;5074755;28;21012;-73
2024/04/04 09:18:27;;;;;;;14.23;2.90;;;;;;;;;;5074442;28;20914;-75
2024/04/04 09:20:52;;;;;;;6.27;2.23;;;;;;;;;;5075549;28;20928;-75
2024/04/04 09:23:18;;;;;;;5.37;2.20;;;;;;;;;;5084606;28;20408;-74
2024/04/04 09:25:44;;;;;;;4.17;2.20;;;;;;;;;;5093992;28;20427;-75
2024/04/04 09:28:13;;;;;;;6.93;2.73;;;;;;;;;;5094202;28;20413;-72
2024/04/04 09:30:41;;;;;;;3.87;1.93;;;;;;;;;;5093327;28;20471;-74
2024/04/04 09:33:08;;;;;;;3.67;1.63;;;;;;;;;;5093856;28;20458;-74
2024/04/04 09:35:35;;;;;;;4.13;1.80;;;;;;;;;;5103892;28;20506;-75
2024/04/04 09:38:01;;;;;;;10.70;2.57;;;;;;;;;;5099799;28;20406;-74
2024/04/04 09:40:27;;;;;;;9.07;3.53;;;;;;;;;;5085105;28;20430;-74
2024/04/04 09:42:53;;;;;;;8.93;2.40;;;;;;;;;;5100483;28;20851;-75
2024/04/04 09:45:19;;;;;;;5.03;2.37;;;;;;;;;;5106321;28;20405;-74
2024/04/04 09:47:46;;;;;;;4.77;1.80;;;;;;;;;;5094055;28;20721;-74
2024/04/04 09:50:14;;;;;;;9.53;3.10;;;;;;;;;;5076329;28;20419;-75
2024/04/04 09:52:40;;;;;;;8.93;1.67;;;;;;;;;;5084648;28;20423;-74
2024/04/04 09:55:07;;;;;;;6.80;2.60;;;;;;;;;;5076860;28;20462;-73
2024/04/04 09:57:35;;;;;;;10.13;2.30;;;;;;;;;;5079091;28;20530;-74
2024/04/04 10:00:13;;;;;;;5.37;2.03;;;;;;;;;;5081089;28;20411;-74
2024/04/04 10:02:43;;;;;;;8.07;2.73;;;;;;;;;;5094927;28;20415;-74
2024/04/04 10:05:19;;;;;;;9.50;2.50;;;;;;;;;;5080770;28;20411;-79
2024/04/04 10:07:48;;;;;;;8.87;2.43;;;;;;;;;;5098164;28;20410;-73
2024/04/04 10:10:15;;;;;;;3.90;2.00;;;;;;;;;;5080221;28;20482;-73
2024/04/04 10:12:45;;;;;;;9.50;2.10;;;;;;;;;;5092853;28;20418;-77
2024/04/04 10:15:15;;;;;;;4.50;2.17;;;;;;;;;;5079785;28;20523;-75
2024/04/04 10:17:44;;;;;;;7.17;1.97;;;;;;;;;;5093129;28;20415;-74
2024/04/04 10:20:11;;;;;;;8.43;2.60;;;;;;;;;;5085730;28;20403;-75
2024/04/04 10:22:37;;;;;;;7.20;2.00;;;;;;;;;;5085215;28;20981;-77
2024/04/04 10:25:03;;;;;;;6.73;2.50;;;;;;;;;;5092053;28;20449;-74
2024/04/04 10:27:29;;;;;;;10.10;2.40;;;;;;;;;;5092181;28;20423;-74
2024/04/04 10:29:55;;;;;;;8.97;2.30;;;;;;;;;;5090941;28;20411;-74
2024/04/04 10:32:22;;;;;;;8.57;2.30;;;;;;;;;;5090822;28;20940;-74
2024/04/04 10:34:58;;;;;;;5.43;2.00;;;;;;;;;;5092722;28;20887;-75
2024/04/04 10:37:24;;;;;;;10.00;2.30;;;;;;;;;;5096917;28;20410;-74
2024/04/04 10:39:51;;;;;;;5.43;2.00;;;;;;;;;;5096856;28;20408;-77
2024/04/04 10:42:17;;;;;;;4.20;1.70;;;;;;;;;;5096882;28;20405;-75
2024/04/04 10:44:43;;;;;;;7.23;2.43;;;;;;;;;;5096924;28;20496;-76
2024/04/04 10:47:09;;;;;;;9.50;1.73;;;;;;;;;;5097058;28;20460;-74
2024/04/04 10:49:35;;;;;;;4.97;2.00;;;;;;;;;;5097023;28;20402;-75
2024/04/04 10:52:04;;;;;;;7.33;2.63;;;;;;;;;;5096881;28;20414;-74
2024/04/04 10:54:31;;;;;;;8.40;2.33;;;;;;;;;;5096744;28;20403;-74
2024/04/04 10:56:58;;;;;;;6.07;2.37;;;;;;;;;;5097542;28;20457;-76
2024/04/04 10:59:24;;;;;;;7.33;1.80;;;;;;;;;;5097048;28;20497;-75
2024/04/04 11:01:55;;;;;;;8.20;2.43;;;;;;;;;;5081872;28;20413;-75
2024/04/04 11:04:21;;;;;;;5.53;2.20;;;;;;;;;;5076662;28;20411;-74
2024/04/04 11:06:51;;;;;;;3.70;1.87;;;;;;;;;;5076084;28;20431;-74
2024/04/04 11:09:21;;;;;;;4.07;1.80;;;;;;;;;;5076578;28;20822;-74
2024/04/04 11:11:49;;;;;;;4.40;2.47;;;;;;;;;;5075435;28;20408;-74
2024/04/04 11:14:17;;;;;;;5.80;1.67;;;;;;;;;;5086866;28;20475;-76
2024/04/04 11:16:44;;;;;;;6.63;2.23;;;;;;;;;;5092334;22;20581;-77
2024/04/04 11:19:10;;;;;;;5.77;2.63;;;;;;;;;;5054685;28;20455;-77
2024/04/04 11:21:37;;;;;;;5.63;2.20;;;;;;;;;;5051603;28;20934;-77
2024/04/04 11:24:03;;;;;;;43.40;9.27;;;;;;;;;;5053695;28;20448;-78
2024/04/04 11:26:30;;;;;;;4.20;1.87;;;;;;;;;;5057702;28;20659;-78
2024/04/04 11:28:58;;;;;;;4.30;1.83;;;;;;;;;;5057430;28;20502;-78
2024/04/04 11:31:24;;;;;;;7.07;2.53;;;;;;;;;;5049869;28;20409;-78
2024/04/04 11:33:50;;;;;;;14.97;4.07;;;;;;;;;;5046817;28;20814;-76
2024/04/04 11:36:16;;;;;;;11.50;2.23;;;;;;;;;;5054807;28;20554;-78
2024/04/04 11:38:43;;;;;;;8.07;2.53;;;;;;;;;;5057748;28;20902;-78
2024/04/04 11:41:10;;;;;;;6.33;2.00;;;;;;;;;;5059620;28;20425;-78
2024/04/04 11:43:37;;;;;;;9.00;2.30;;;;;;;;;;5040630;28;20405;-78
2024/04/04 11:46:05;;;;;;;4.70;2.07;;;;;;;;;;5042059;28;20429;-77
2024/04/04 11:48:31;;;;;;;8.57;3.07;;;;;;;;;;5051002;28;20413;-75
2024/04/04 11:50:57;;;;;;;9.03;2.70;;;;;;;;;;5046792;28;20844;-74
2024/04/04 11:53:23;;;;;;;3.77;2.20;;;;;;;;;;5047139;28;20508;-75
2024/04/04 11:55:50;;;;;;;5.90;2.43;;;;;;;;;;5052900;28;20548;-76
2024/04/04 11:58:16;;;;;;;3.63;2.07;;;;;;;;;;5067940;28;20431;-76
2024/04/04 12:00:42;;;;;;;9.33;2.27;;;;;;;;;;5075869;28;20436;-77
2024/04/04 12:03:08;;;;;;;4.30;2.10;;;;;;;;;;5076286;28;20416;-75
2024/04/04 12:05:36;;;;;;;5.50;1.90;;;;;;;;;;5066555;28;20424;-77
2024/04/04 12:08:02;;;;;;;5.13;1.77;;;;;;;;;;5049796;28;20608;-76
2024/04/04 12:10:28;;;;;;;7.30;1.97;;;;;;;;;;5047677;28;20426;-77
2024/04/04 12:12:56;;;;;;;4.80;2.07;;;;;;;;;;5064090;28;20492;-76
2024/04/04 12:15:22;;;;;;;7.97;2.10;;;;;;;;;;5069508;28;20549;-76
2024/04/04 12:17:52;;;;;;;4.30;2.17;;;;;;;;;;5070669;28;20459;-76
2024/04/04 12:20:19;;;;;;;10.93;2.77;;;;;;;;;;5059340;28;20413;-76
2024/04/04 12:22:48;;;;;;;6.17;2.03;;;;;;;;;;5050210;28;20406;-75
2024/04/04 12:25:15;;;;;;;7.90;2.30;;;;;;;;;;5028331;28;20422;-75
2024/04/04 12:27:44;;;;;;;3.33;1.83;;;;;;;;;;5021664;28;20457;-75
2024/04/04 12:30:10;;;;;;;4.90;1.83;;;;;;;;;;5034346;28;20414;-76
2024/04/04 12:32:37;;;;;;;5.97;2.00;;;;;;;;;;5035232;28;20854;-76
2024/04/04 12:35:03;;;;;;;5.73;2.00;;;;;;;;;;5048074;28;20468;-76
2024/04/04 12:37:29;;;;;;;9.53;2.03;;;;;;;;;;5033589;28;20824;-76
2024/04/04 12:39:55;;;;;;;2.73;1.50;;;;;;;;;;5033669;28;20406;-77
2024/04/04 12:42:21;;;;;;;2.60;1.30;;;;;;;;;;5032482;28;20742;-77
2024/04/04 12:44:47;;;;;;;2.10;1.20;;;;;;;;;;5033417;28;20525;-77
2024/04/04 12:47:13;;;;;;;3.47;1.60;;;;;;;;;;5034299;28;20427;-77
2024/04/04 12:49:39;;;;;;;5.40;1.60;;;;;;;;;;5032008;28;20425;-77
2024/04/04 12:52:06;;;;;;;6.00;1.60;;;;;;;;;;5033811;28;20803;-77
2024/04/04 12:54:32;;;;;;;3.80;1.37;;;;;;;;;;5040948;28;20410;-77
2024/04/04 12:56:58;;;;;;;2.43;1.30;;;;;;;;;;5032648;28;20469;-76
2024/04/04 12:59:24;;;;;;;7.77;1.90;;;;;;;;;;5034298;28;20413;-76
2024/04/04 13:01:50;;;;;;;3.03;1.40;;;;;;;;;;5033899;28;20416;-76
2024/04/04 13:04:16;;;;;;;5.70;1.50;;;;;;;;;;5036517;28;20815;-76
2024/04/04 13:06:42;;;;;;;2.03;1.20;;;;;;;;;;5045784;28;20817;-77
2024/04/04 13:09:08;;;;;;;2.47;1.30;;;;;;;;;;5022025;28;20424;-77
2024/04/04 13:11:34;;;;;;;1.93;1.30;;;;;;;;;;5032753;28;20405;-76
2024/04/04 13:14:00;;;;;;;2.30;1.30;;;;;;;;;;5031258;28;20461;-77
2024/04/04 13:16:26;;;;;;;3.20;1.10;;;;;;;;;;5036613;28;20507;-78
2024/04/04 13:18:52;;;;;;;3.40;1.87;;;;;;;;;;5033966;28;20421;-78
2024/04/04 13:21:18;;;;;;;3.77;1.43;;;;;;;;;;5033156;28;20817;-77
2024/04/04 13:23:44;;;;;;;4.40;1.50;;;;;;;;;;5031114;28;20448;-76
2024/04/04 13:26:10;;;;;;;1.27;1.00;;;;;;;;;;5032068;28;20437;-77
2024/04/04 13:28:36;;;;;;;2.57;1.17;;;;;;;;;;5032741;28;20451;-77
2024/04/04 13:31:03;;;;;;;4.87;1.20;;;;;;;;;;5034231;28;20524;-76
2024/04/04 13:33:29;;;;;;;2.03;1.20;;;;;;;;;;5038450;28;20424;-76
2024/04/04 13:35:55;;;;;;;2.53;1.30;;;;;;;;;;5045137;28;20525;-77
2024/04/04 13:38:21;;;;;;;3.00;1.47;;;;;;;;;;5038285;28;20409;-77
2024/04/04 13:40:47;;;;;;;1.70;1.20;;;;;;;;;;5032329;28;20413;-76
2024/04/04 13:43:14;;;;;;;7.10;1.77;;;;;;;;;;5035449;28;21002;-77
2024/04/04 13:45:40;;;;;;;1.97;1.33;;;;;;;;;;5033795;28;20449;-78
2024/04/04 13:48:07;;;;;;;3.50;1.57;;;;;;;;;;5041620;28;20920;-77
2024/04/04 13:50:33;;;;;;;1.80;1.30;;;;;;;;;;5049830;28;20841;-76
2024/04/04 13:52:59;;;;;;;2.00;1.20;;;;;;;;;;5045625;28;20410;-77
2024/04/04 13:55:25;;;;;;;2.63;1.20;;;;;;;;;;5035186;28;20527;-77
2024/04/04 13:57:51;;;;;;;3.20;1.47;;;;;;;;;;5030332;28;20491;-76
2024/04/04 14:00:18;;;;;;;3.83;1.20;;;;;;;;;;5035479;28;20455;-77
2024/04/04 14:02:44;;;;;;;2.83;1.60;;;;;;;;;;5040647;28;20475;-77
2024/04/04 14:05:10;;;;;;;6.07;1.10;;;;;;;;;;5032561;28;20417;-77
2024/04/04 14:07:36;;;;;;;4.50;1.40;;;;;;;;;;5049490;28;20582;-76
2024/04/04 14:10:02;;;;;;;3.33;1.50;;;;;;;;;;5051651;28;20420;-77
2024/04/04 14:12:29;;;;;;;5.33;1.90;;;;;;;;;;5052881;28;20416;-77
2024/04/04 14:14:55;;;;;;;2.80;1.90;;;;;;;;;;5047549;28;20425;-78
2024/04/04 14:17:23;;;;;;;3.87;1.43;;;;;;;;;;5034199;28;20449;-78
2024/04/04 14:19:49;;;;;;;5.00;1.70;;;;;;;;;;5033486;28;20410;-78
2024/04/04 14:22:17;;;;;;;4.60;1.40;;;;;;;;;;5051909;28;20414;-78
2024/04/04 14:24:43;;;;;;;7.07;1.77;;;;;;;;;;5050383;28;20408;-77
2024/04/04 14:27:09;;;;;;;3.60;1.50;;;;;;;;;;5034571;28;20805;-76
2024/04/04 14:29:35;;;;;;;3.17;1.40;;;;;;;;;;5043444;28;20412;-76
2024/04/04 14:32:01;;;;;;;1.90;1.27;;;;;;;;;;5031978;28;20899;-76
2024/04/04 14:34:27;;;;;;;5.20;1.63;;;;;;;;;;5029978;28;20413;-76
2024/04/04 14:36:53;;;;;;;4.33;1.37;;;;;;;;;;5034520;28;20488;-78
2024/04/04 14:39:19;;;;;;;6.60;1.70;;;;;;;;;;5033078;28;20428;-78
2024/04/04 14:41:46;;;;;;;4.50;1.87;;;;;;;;;;5032117;28;20432;-78
2024/04/04 14:44:12;;;;;;;3.10;1.60;;;;;;;;;;5038464;28;20444;-78
2024/04/04 14:46:38;;;;;;;2.43;1.60;;;;;;;;;;5043839;28;20471;-77
2024/04/04 14:49:04;;;;;;;6.37;1.50;;;;;;;;;;5046764;28;20441;-78
2024/04/04 14:51:30;;;;;;;5.17;1.63;;;;;;;;;;5031541;28;20420;-77
2024/04/04 14:53:56;;;;;;;4.90;1.73;;;;;;;;;;5033838;28;20467;-76
2024/04/04 14:56:24;;;;;;;3.53;1.73;;;;;;;;;;5033812;28;20589;-76
2024/04/04 14:58:50;;;;;;;4.63;2.03;;;;;;;;;;5032315;28;20425;-77
2024/04/04 15:01:16;;;;;;;3.87;1.63;;;;;;;;;;5049578;28;20412;-77
2024/04/04 15:03:42;;;;;;;5.50;2.67;;;;;;;;;;5039893;28;20556;-78
2024/04/04 15:06:09;;;;;;;4.67;2.03;;;;;;;;;;5030939;28;20449;-78
2024/04/04 15:08:35;;;;;;;3.13;2.00;;;;;;;;;;5034109;28;20416;-78
2024/04/04 15:11:02;;;;;;;10.47;1.90;;;;;;;;;;5033936;28;20429;-79
2024/04/04 15:13:27;;;;;;;4.67;1.87;;;;;;;;;;5042858;28;20437;-79
2024/04/04 15:15:53;;;;;;;5.80;1.67;;;;;;;;;;5053247;28;20479;-78
2024/04/04 15:18:19;;;;;;;5.60;1.50;;;;;;;;;;5053402;28;20451;-78
2024/04/04 15:20:45;;;;;;;7.30;2.60;;;;;;;;;;5031488;28;20425;-78
2024/04/04 15:23:11;;;;;;;2.40;1.20;;;;;;;;;;5035243;28;20410;-78
2024/04/04 15:25:37;;;;;;;5.07;2.00;;;;;;;;;;5034453;28;20412;-78
2024/04/04 15:28:04;;;;;;;4.10;1.50;;;;;;;;;;5035787;28;20474;-77
2024/04/04 15:30:33;;;;;;;3.40;1.50;;;;;;;;;;5035296;28;20441;-77
2024/04/04 15:32:59;;;;;;;4.20;1.63;;;;;;;;;;5033907;28;20768;-77
2024/04/04 15:35:25;;;;;;;4.40;1.50;;;;;;;;;;5034680;28;20537;-77
2024/04/04 15:37:51;;;;;;;2.63;1.70;;;;;;;;;;5033962;28;20444;-78
2024/04/04 15:40:17;;;;;;;8.10;1.60;;;;;;;;;;5047079;28;20415;-78
2024/04/04 15:42:44;;;;;;;3.10;1.50;;;;;;;;;;5035650;28;20907;-78
2024/04/04 15:45:10;;;;;;;2.90;1.50;;;;;;;;;;5046978;28;20547;-77
2024/04/04 15:47:36;;;;;;;5.67;1.60;;;;;;;;;;5040563;28;20429;-78
2024/04/04 15:50:02;;;;;;;2.73;1.70;;;;;;;;;;5042621;28;20451;-77
2024/04/04 15:52:28;;;;;;;3.23;1.60;;;;;;;;;;5034613;28;20463;-78
2024/04/04 15:54:54;;;;;;;2.87;1.30;;;;;;;;;;5032801;28;20413;-78
2024/04/04 15:57:20;;;;;;;2.40;1.30;;;;;;;;;;5032953;28;20527;-77
2024/04/04 15:59:46;;;;;;;5.80;1.40;;;;;;;;;;5032969;28;20409;-77
2024/04/04 16:02:12;;;;;;;4.87;1.60;;;;;;;;;;5034260;28;20968;-77
2024/04/04 16:04:38;;;;;;;3.40;1.40;;;;;;;;;;5034549;28;20909;-77
2024/04/04 16:07:05;;;;;;;6.63;1.53;;;;;;;;;;5034204;28;20753;-77
2024/04/04 16:09:31;;;;;;;4.17;1.63;;;;;;;;;;5034164;28;20424;-78
2024/04/04 16:11:57;;;;;;;3.07;1.97;;;;;;;;;;5032808;28;20457;-77
2024/04/04 16:14:23;;;;;;;3.10;1.47;;;;;;;;;;5033777;28;20413;-78
2024/04/04 16:16:49;;;;;;;2.20;1.40;;;;;;;;;;5032858;28;20476;-78
2024/04/04 16:19:15;;;;;;;4.57;2.03;;;;;;;;;;5035779;28;20409;-78
2024/04/04 16:21:43;;;;;;;3.63;1.57;;;;;;;;;;5049615;28;20421;-78
2024/04/04 16:24:09;;;;;;;5.20;1.70;;;;;;;;;;5053360;28;20892;-78
2024/04/04 16:26:36;;;;;;;4.10;1.60;;;;;;;;;;5052766;28;20467;-78
2024/04/04 16:29:02;;;;;;;3.57;1.37;;;;;;;;;;5054689;28;20730;-77
2024/04/04 16:31:28;;;;;;;6.37;1.73;;;;;;;;;;5053039;28;20444;-78
2024/04/04 16:33:54;;;;;;;9.23;2.00;;;;;;;;;;5051050;28;20424;-78
2024/04/04 16:36:24;;;;;;;7.23;1.80;;;;;;;;;;5053424;28;20802;-78
2024/04/04 16:38:50;;;;;;;4.23;1.50;;;;;;;;;;5051031;28;20506;-78
2024/04/04 16:41:16;;;;;;;4.40;1.57;;;;;;;;;;5043046;28;20499;-78
2024/04/04 16:43:42;;;;;;;2.33;1.20;;;;;;;;;;5052514;28;20975;-78
2024/04/04 16:46:09;;;;;;;8.90;1.93;;;;;;;;;;5053223;28;20459;-78
2024/04/04 16:48:35;;;;;;;4.60;1.67;;;;;;;;;;5052263;28;20427;-78
2024/04/04 16:51:01;;;;;;;3.83;1.70;;;;;;;;;;5053974;28;20415;-78
2024/04/04 16:53:27;;;;;;;3.17;1.63;;;;;;;;;;5052481;28;20416;-78
2024/04/04 16:55:53;;;;;;;3.90;1.73;;;;;;;;;;5053437;28;20475;-78
2024/04/04 16:58:20;;;;;;;4.30;1.40;;;;;;;;;;5053186;28;20423;-77
2024/04/04 17:00:45;;;;;;;5.60;1.43;;;;;;;;;;5054109;28;20419;-78
2024/04/04 17:03:12;;;;;;;4.47;2.00;;;;;;;;;;5061377;28;20444;-78
2024/04/04 17:05:38;;;;;;;3.20;2.00;;;;;;;;;;5056905;28;20463;-78
2024/04/04 17:08:04;;;;;;;7.13;2.57;;;;;;;;;;5052471;28;20412;-78
2024/04/04 17:10:31;;;;;;;3.50;1.90;;;;;;;;;;5036492;28;20972;-78
2024/04/04 17:12:57;;;;;;;2.73;1.63;;;;;;;;;;5035979;28;20909;-79
2024/04/04 17:15:23;;;;;;;3.47;1.70;;;;;;;;;;5041417;28;20464;-78
2024/04/04 17:17:50;;;;;;;5.47;1.80;;;;;;;;;;5063712;22;20504;-77
2024/04/04 17:20:16;;;;;;;4.23;2.00;;;;;;;;;;5038334;28;20750;-80
2024/04/04 17:22:42;;;;;;;5.40;1.63;;;;;;;;;;5038976;28;20467;-81
2024/04/04 17:25:09;;;;;;;3.07;1.70;;;;;;;;;;5038349;28;20393;-78
2024/04/04 17:27:38;;;;;;;4.53;2.07;;;;;;;;;;5052983;28;20424;-79
2024/04/04 17:30:04;;;;;;;5.13;1.70;;;;;;;;;;5058110;28;20404;-78
2024/04/04 17:32:30;;;;;;;2.83;1.40;;;;;;;;;;5056075;28;20405;-77
2024/04/04 17:34:56;;;;;;;3.27;1.30;;;;;;;;;;5058327;28;20400;-79
2024/04/04 17:37:22;;;;;;;3.90;2.20;;;;;;;;;;5057959;28;20432;-77
2024/04/04 17:39:48;;;;;;;7.00;1.83;;;;;;;;;;5058123;28;20495;-79
2024/04/04 17:42:14;;;;;;;4.13;1.73;;;;;;;;;;5043549;28;20782;-79
2024/04/04 17:44:40;;;;;;;5.47;1.80;;;;;;;;;;5039564;28;20413;-80
2024/04/04 17:47:07;;;;;;;2.90;1.50;;;;;;;;;;5040738;28;20433;-79
2024/04/04 17:49:33;;;;;;;4.23;2.17;;;;;;;;;;5037493;28;20421;-79
2024/04/04 17:51:59;;;;;;;2.90;1.80;;;;;;;;;;5048495;28;20427;-77
2024/04/04 17:54:25;;;;;;;3.00;1.73;;;;;;;;;;5067180;28;20446;-77
2024/04/04 17:56:51;;;;;;;4.03;1.97;;;;;;;;;;5066095;28;20467;-78
2024/04/04 17:59:17;;;;;;;4.93;2.00;;;;;;;;;;5057571;28;20409;-80
2024/04/04 18:01:44;;;;;;;6.43;2.00;;;;;;;;;;5059435;28;20459;-79
2024/04/04 18:04:10;;;;;;;7.23;2.17;;;;;;;;;;5057328;28;20423;-77
2024/04/04 18:06:36;;;;;;;2.70;1.60;;;;;;;;;;5062272;28;20477;-79
2024/04/04 18:09:03;;;;;;;5.70;3.40;;;;;;;;;;5062759;28;20415;-79
2024/04/04 18:11:29;;;;;;;5.93;2.57;;;;;;;;;;5059762;28;20420;-79
2024/04/04 18:13:55;;;;;;;21.33;8.57;;;;;;;;;;5056619;28;20501;-78
2024/04/04 18:16:21;;;;;;;32.40;11.50;;;;;;;;;;5055801;28;20459;-80
2024/04/04 18:18:47;;;;;;;26.83;10.10;;;;;;;;;;5039989;28;20413;-80
2024/04/04 18:21:13;;;;;;;27.90;8.70;;;;;;;;;;5037975;28;20413;-80
2024/04/04 18:23:39;;;;;;;22.80;8.23;;;;;;;;;;5040110;28;20417;-80
2024/04/04 18:26:05;;;;;;;18.63;6.20;;;;;;;;;;5037988;28;20440;-80
2024/04/04 18:28:32;;;;;;;8.00;3.30;;;;;;;;;;5037534;28;20405;-80
2024/04/04 18:30:58;;;;;;;9.33;4.03;;;;;;;;;;5039297;28;20413;-77
2024/04/04 18:33:24;;;;;;;7.50;3.63;;;;;;;;;;5042250;28;20852;-79
2024/04/04 18:35:50;;;;;;;10.50;5.00;;;;;;;;;;5059670;28;20471;-79
2024/04/04 18:38:16;;;;;;;12.43;6.30;;;;;;;;;;5058700;28;20411;-77
2024/04/04 18:40:43;;;;;;;21.77;8.63;;;;;;;;;;5061392;28;20413;-77
2024/04/04 18:43:09;;;;;;;16.93;7.07;;;;;;;;;;5066983;28;20411;-76
2024/04/04 18:45:35;;;;;;;21.43;8.53;;;;;;;;;;5068713;28;20404;-77
2024/04/04 18:48:01;;;;;;;10.80;4.40;;;;;;;;;;5064854;28;20432;-76
2024/04/04 18:50:27;;;;;;;8.10;3.57;;;;;;;;;;5048518;28;20421;-77
2024/04/04 18:52:53;;;;;;;4.70;3.20;;;;;;;;;;5049437;28;20408;-77
2024/04/04 18:55:19;;;;;;;8.23;2.90;;;;;;;;;;5048747;28;20476;-78
2024/04/04 18:57:45;;;;;;;7.77;2.97;;;;;;;;;;5050309;28;20417;-78
2024/04/04 19:00:12;;;;;;;5.90;2.90;;;;;;;;;;5067114;28;20404;-75
2024/04/04 19:02:38;;;;;;;9.67;3.00;;;;;;;;;;5063239;28;20907;-78
2024/04/04 19:05:05;;;;;;;6.43;2.93;;;;;;;;;;5060803;28;21004;-79
2024/04/04 19:07:32;;;;;;;7.60;2.80;;;;;;;;;;5064226;28;20489;-76
2024/04/04 19:09:59;;;;;;;5.33;2.40;;;;;;;;;;5064735;28;20496;-79
2024/04/04 19:12:28;;;;;;;4.23;2.50;;;;;;;;;;5065851;28;20416;-78
2024/04/04 19:14:55;;;;;;;6.87;3.17;;;;;;;;;;5065816;28;20413;-79
2024/04/04 19:17:25;;;;;;;9.83;3.00;;;;;;;;;;5065520;28;20453;-79
2024/04/04 19:19:51;;;;;;;7.53;2.97;;;;;;;;;;5063955;28;20412;-78
2024/04/04 19:22:20;;;;;;;5.63;2.20;;;;;;;;;;5063454;28;20937;-77
2024/04/04 19:24:47;;;;;;;8.77;2.03;;;;;;;;;;5064822;28;20452;-79
2024/04/04 19:27:14;;;;;;;5.53;2.30;;;;;;;;;;5068609;28;20423;-79
2024/04/04 19:29:40;;;;;;;4.30;3.30;;;;;;;;;;5049928;28;20540;-79
2024/04/04 19:32:07;;;;;;;6.50;2.50;;;;;;;;;;5042385;28;20927;-78
2024/04/04 19:34:33;;;;;;;4.00;2.00;;;;;;;;;;5040012;28;20503;-79
2024/04/04 19:37:00;;;;;;;2.90;1.97;;;;;;;;;;5045002;28;20463;-79